sensor_id;sensor_type;location;lat;lon;timestamp;temperature;humidity
66608;DHT22;53462;39.616;8.824;2022-08-19T00:00:28;23.50;72.90
66608;DHT22;53462;39.616;8.824;2022-08-19T00:02:54;23.50;72.60
66608;DHT22;53462;39.616;8.824;2022-08-19T00:05:21;23.50;72.10
66608;DHT22;53462;39.616;8.824;2022-08-19T00:07:48;23.50;72.10
66608;DHT22;53462;39.616;8.824;2022-08-19T00:10:16;23.60;71.60
66608;DHT22;53462;39.616;8.824;2022-08-19T00:12:42;23.60;71.30
66608;DHT22;53462;39.616;8.824;2022-08-19T00:15:11;23.60;71.00
66608;DHT22;53462;39.616;8.824;2022-08-19T00:17:42;23.50;70.80
66608;DHT22;53462;39.616;8.824;2022-08-19T00:20:11;23.50;70.80
66608;DHT22;53462;39.616;8.824;2022-08-19T00:22:38;23.50;70.70
66608;DHT22;53462;39.616;8.824;2022-08-19T00:25:07;23.50;70.50
66608;DHT22;53462;39.616;8.824;2022-08-19T00:27:34;23.50;70.30
66608;DHT22;53462;39.616;8.824;2022-08-19T00:30:00;23.50;70.00
66608;DHT22;53462;39.616;8.824;2022-08-19T00:32:27;23.50;69.70
66608;DHT22;53462;39.616;8.824;2022-08-19T00:34:53;23.50;69.80
66608;DHT22;53462;39.616;8.824;2022-08-19T00:37:23;23.50;69.50
66608;DHT22;53462;39.616;8.824;2022-08-19T00:39:51;23.50;69.30
66608;DHT22;53462;39.616;8.824;2022-08-19T00:42:18;23.50;69.30
66608;DHT22;53462;39.616;8.824;2022-08-19T00:44:45;23.40;69.30
66608;DHT22;53462;39.616;8.824;2022-08-19T00:47:11;23.40;69.60
66608;DHT22;53462;39.616;8.824;2022-08-19T00:49:43;23.30;69.80
66608;DHT22;53462;39.616;8.824;2022-08-19T00:52:17;23.40;69.40
66608;DHT22;53462;39.616;8.824;2022-08-19T00:54:44;23.40;69.50
66608;DHT22;53462;39.616;8.824;2022-08-19T00:57:13;23.30;69.40
66608;DHT22;53462;39.616;8.824;2022-08-19T00:59:41;23.30;69.20
66608;DHT22;53462;39.616;8.824;2022-08-19T01:02:07;23.20;69.40
66608;DHT22;53462;39.616;8.824;2022-08-19T01:04:33;23.30;69.40
66608;DHT22;53462;39.616;8.824;2022-08-19T01:07:01;23.20;69.60
66608;DHT22;53462;39.616;8.824;2022-08-19T01:09:29;23.00;69.90
66608;DHT22;53462;39.616;8.824;2022-08-19T01:11:56;23.00;70.40
66608;DHT22;53462;39.616;8.824;2022-08-19T01:14:23;23.10;70.20
66608;DHT22;53462;39.616;8.824;2022-08-19T01:16:50;23.30;69.60
66608;DHT22;53462;39.616;8.824;2022-08-19T01:21:58;23.40;68.90
66608;DHT22;53462;39.616;8.824;2022-08-19T01:24:25;23.50;68.60
66608;DHT22;53462;39.616;8.824;2022-08-19T01:26:51;23.40;68.70
66608;DHT22;53462;39.616;8.824;2022-08-19T01:29:17;23.20;69.20
66608;DHT22;53462;39.616;8.824;2022-08-19T01:31:43;23.10;69.60
66608;DHT22;53462;39.616;8.824;2022-08-19T01:34:09;22.90;69.80
66608;DHT22;53462;39.616;8.824;2022-08-19T01:36:42;22.70;70.90
66608;DHT22;53462;39.616;8.824;2022-08-19T01:39:24;22.50;71.30
66608;DHT22;53462;39.616;8.824;2022-08-19T01:41:50;22.40;71.70
66608;DHT22;53462;39.616;8.824;2022-08-19T01:44:20;22.60;71.70
66608;DHT22;53462;39.616;8.824;2022-08-19T01:46:50;22.90;71.00
66608;DHT22;53462;39.616;8.824;2022-08-19T01:49:19;23.00;70.30
66608;DHT22;53462;39.616;8.824;2022-08-19T01:51:46;23.10;69.80
66608;DHT22;53462;39.616;8.824;2022-08-19T01:54:14;23.20;69.40
66608;DHT22;53462;39.616;8.824;2022-08-19T01:56:41;23.20;68.60
66608;DHT22;53462;39.616;8.824;2022-08-19T01:59:14;23.30;68.10
66608;DHT22;53462;39.616;8.824;2022-08-19T02:01:40;23.40;67.70
66608;DHT22;53462;39.616;8.824;2022-08-19T02:04:07;23.40;67.60
66608;DHT22;53462;39.616;8.824;2022-08-19T02:06:33;23.40;67.40
66608;DHT22;53462;39.616;8.824;2022-08-19T02:09:00;23.40;67.40
66608;DHT22;53462;39.616;8.824;2022-08-19T02:11:33;23.40;67.40
66608;DHT22;53462;39.616;8.824;2022-08-19T02:14:03;23.50;67.20
66608;DHT22;53462;39.616;8.824;2022-08-19T02:16:30;23.50;67.20
66608;DHT22;53462;39.616;8.824;2022-08-19T02:18:56;23.40;67.20
66608;DHT22;53462;39.616;8.824;2022-08-19T02:21:23;23.40;67.20
66608;DHT22;53462;39.616;8.824;2022-08-19T02:23:50;23.40;66.90
66608;DHT22;53462;39.616;8.824;2022-08-19T02:26:17;23.40;66.80
66608;DHT22;53462;39.616;8.824;2022-08-19T02:28:43;23.40;66.80
66608;DHT22;53462;39.616;8.824;2022-08-19T02:31:14;23.40;66.70
66608;DHT22;53462;39.616;8.824;2022-08-19T02:33:44;23.40;66.70
66608;DHT22;53462;39.616;8.824;2022-08-19T02:36:11;23.30;66.80
66608;DHT22;53462;39.616;8.824;2022-08-19T02:38:39;23.30;66.90
66608;DHT22;53462;39.616;8.824;2022-08-19T02:41:38;23.30;67.00
66608;DHT22;53462;39.616;8.824;2022-08-19T02:44:04;23.10;67.20
66608;DHT22;53462;39.616;8.824;2022-08-19T02:46:32;22.90;68.10
66608;DHT22;53462;39.616;8.824;2022-08-19T02:49:01;22.80;68.40
66608;DHT22;53462;39.616;8.824;2022-08-19T02:51:34;22.80;68.70
66608;DHT22;53462;39.616;8.824;2022-08-19T02:54:01;22.80;68.80
66608;DHT22;53462;39.616;8.824;2022-08-19T02:56:27;22.70;68.90
66608;DHT22;53462;39.616;8.824;2022-08-19T02:58:57;22.70;69.00
66608;DHT22;53462;39.616;8.824;2022-08-19T03:01:32;22.70;69.00
66608;DHT22;53462;39.616;8.824;2022-08-19T03:04:01;22.60;68.90
66608;DHT22;53462;39.616;8.824;2022-08-19T03:06:28;22.60;69.30
66608;DHT22;53462;39.616;8.824;2022-08-19T03:08:55;22.50;69.60
66608;DHT22;53462;39.616;8.824;2022-08-19T03:11:25;22.30;70.00
66608;DHT22;53462;39.616;8.824;2022-08-19T03:13:51;22.30;70.20
66608;DHT22;53462;39.616;8.824;2022-08-19T03:16:20;22.30;70.40
66608;DHT22;53462;39.616;8.824;2022-08-19T03:18:46;22.30;70.30
66608;DHT22;53462;39.616;8.824;2022-08-19T03:21:18;22.30;70.50
66608;DHT22;53462;39.616;8.824;2022-08-19T03:23:45;22.30;70.60
66608;DHT22;53462;39.616;8.824;2022-08-19T03:26:10;22.30;71.10
66608;DHT22;53462;39.616;8.824;2022-08-19T03:28:37;22.20;71.00
66608;DHT22;53462;39.616;8.824;2022-08-19T03:31:13;22.00;71.30
66608;DHT22;53462;39.616;8.824;2022-08-19T03:33:39;21.90;71.80
66608;DHT22;53462;39.616;8.824;2022-08-19T03:38:38;21.80;72.20
66608;DHT22;53462;39.616;8.824;2022-08-19T03:41:17;21.70;72.70
66608;DHT22;53462;39.616;8.824;2022-08-19T03:43:44;21.60;72.60
66608;DHT22;53462;39.616;8.824;2022-08-19T03:46:14;21.60;73.00
66608;DHT22;53462;39.616;8.824;2022-08-19T03:48:42;21.60;73.30
66608;DHT22;53462;39.616;8.824;2022-08-19T03:51:24;21.50;73.70
66608;DHT22;53462;39.616;8.824;2022-08-19T03:53:52;21.40;74.00
66608;DHT22;53462;39.616;8.824;2022-08-19T03:56:18;21.40;74.10
66608;DHT22;53462;39.616;8.824;2022-08-19T03:58:45;21.40;74.30
66608;DHT22;53462;39.616;8.824;2022-08-19T04:01:14;21.50;74.40
66608;DHT22;53462;39.616;8.824;2022-08-19T04:03:40;21.60;74.40
66608;DHT22;53462;39.616;8.824;2022-08-19T04:06:18;21.60;74.20
66608;DHT22;53462;39.616;8.824;2022-08-19T04:08:45;21.60;74.10
66608;DHT22;53462;39.616;8.824;2022-08-19T04:11:17;21.50;74.50
66608;DHT22;53462;39.616;8.824;2022-08-19T04:13:43;21.60;74.30
66608;DHT22;53462;39.616;8.824;2022-08-19T04:16:10;21.60;74.10
66608;DHT22;53462;39.616;8.824;2022-08-19T04:18:38;21.50;73.80
66608;DHT22;53462;39.616;8.824;2022-08-19T04:21:05;21.50;74.30
66608;DHT22;53462;39.616;8.824;2022-08-19T04:23:32;21.40;74.50
66608;DHT22;53462;39.616;8.824;2022-08-19T04:25:58;21.40;74.50
66608;DHT22;53462;39.616;8.824;2022-08-19T04:28:25;21.50;74.40
66608;DHT22;53462;39.616;8.824;2022-08-19T04:30:54;21.40;74.70
66608;DHT22;53462;39.616;8.824;2022-08-19T04:33:23;21.60;74.50
66608;DHT22;53462;39.616;8.824;2022-08-19T04:35:51;21.80;74.30
66608;DHT22;53462;39.616;8.824;2022-08-19T04:38:20;22.00;73.80
66608;DHT22;53462;39.616;8.824;2022-08-19T04:40:50;22.20;73.20
66608;DHT22;53462;39.616;8.824;2022-08-19T04:43:35;22.20;72.80
66608;DHT22;53462;39.616;8.824;2022-08-19T04:46:10;22.00;72.80
66608;DHT22;53462;39.616;8.824;2022-08-19T04:48:38;21.80;73.40
66608;DHT22;53462;39.616;8.824;2022-08-19T04:51:10;21.80;73.70
66608;DHT22;53462;39.616;8.824;2022-08-19T04:53:40;21.70;74.00
66608;DHT22;53462;39.616;8.824;2022-08-19T04:56:12;21.70;74.20
66608;DHT22;53462;39.616;8.824;2022-08-19T04:58:41;21.60;74.40
66608;DHT22;53462;39.616;8.824;2022-08-19T05:01:14;21.60;74.50
66608;DHT22;53462;39.616;8.824;2022-08-19T05:03:42;21.70;74.40
66608;DHT22;53462;39.616;8.824;2022-08-19T05:06:11;21.70;74.60
66608;DHT22;53462;39.616;8.824;2022-08-19T05:08:40;21.80;74.30
66608;DHT22;53462;39.616;8.824;2022-08-19T05:11:12;21.80;74.00
66608;DHT22;53462;39.616;8.824;2022-08-19T05:13:38;21.90;73.70
66608;DHT22;53462;39.616;8.824;2022-08-19T05:16:04;21.90;74.30
66608;DHT22;53462;39.616;8.824;2022-08-19T05:18:30;21.90;74.20
66608;DHT22;53462;39.616;8.824;2022-08-19T05:21:18;22.00;73.80
66608;DHT22;53462;39.616;8.824;2022-08-19T05:24:04;22.10;74.00
66608;DHT22;53462;39.616;8.824;2022-08-19T05:26:33;22.40;73.50
66608;DHT22;53462;39.616;8.824;2022-08-19T05:28:59;22.50;72.60
66608;DHT22;53462;39.616;8.824;2022-08-19T05:31:25;22.80;72.20
66608;DHT22;53462;39.616;8.824;2022-08-19T05:33:51;22.80;72.50
66608;DHT22;53462;39.616;8.824;2022-08-19T05:36:17;22.80;72.40
66608;DHT22;53462;39.616;8.824;2022-08-19T05:38:45;23.00;73.00
66608;DHT22;53462;39.616;8.824;2022-08-19T05:41:14;22.90;72.00
66608;DHT22;53462;39.616;8.824;2022-08-19T05:43:41;22.80;72.60
66608;DHT22;53462;39.616;8.824;2022-08-19T05:46:07;22.80;72.50
66608;DHT22;53462;39.616;8.824;2022-08-19T05:48:35;22.90;72.90
66608;DHT22;53462;39.616;8.824;2022-08-19T05:51:05;23.00;73.20
66608;DHT22;53462;39.616;8.824;2022-08-19T05:53:35;23.00;71.90
66608;DHT22;53462;39.616;8.824;2022-08-19T05:56:05;23.10;72.10
66608;DHT22;53462;39.616;8.824;2022-08-19T05:58:32;23.40;71.70
66608;DHT22;53462;39.616;8.824;2022-08-19T06:00:59;23.40;72.40
66608;DHT22;53462;39.616;8.824;2022-08-19T06:03:32;23.60;72.20
66608;DHT22;53462;39.616;8.824;2022-08-19T06:05:59;23.50;75.00
66608;DHT22;53462;39.616;8.824;2022-08-19T06:08:26;23.40;78.60
66608;DHT22;53462;39.616;8.824;2022-08-19T06:10:53;22.90;78.80
66608;DHT22;53462;39.616;8.824;2022-08-19T06:13:19;22.90;81.90
66608;DHT22;53462;39.616;8.824;2022-08-19T06:15:46;22.90;83.30
66608;DHT22;53462;39.616;8.824;2022-08-19T06:18:13;22.80;83.50
66608;DHT22;53462;39.616;8.824;2022-08-19T06:20:40;22.80;84.60
66608;DHT22;53462;39.616;8.824;2022-08-19T06:23:06;22.80;85.50
66608;DHT22;53462;39.616;8.824;2022-08-19T06:25:32;22.80;85.00
66608;DHT22;53462;39.616;8.824;2022-08-19T06:27:58;22.90;83.60
66608;DHT22;53462;39.616;8.824;2022-08-19T06:30:24;23.00;82.90
66608;DHT22;53462;39.616;8.824;2022-08-19T06:32:50;23.10;84.00
66608;DHT22;53462;39.616;8.824;2022-08-19T06:35:16;23.20;81.50
66608;DHT22;53462;39.616;8.824;2022-08-19T06:37:42;23.20;82.80
66608;DHT22;53462;39.616;8.824;2022-08-19T06:40:10;23.10;82.50
66608;DHT22;53462;39.616;8.824;2022-08-19T06:42:37;23.20;83.50
66608;DHT22;53462;39.616;8.824;2022-08-19T06:45:06;23.40;82.00
66608;DHT22;53462;39.616;8.824;2022-08-19T06:47:34;23.60;81.40
66608;DHT22;53462;39.616;8.824;2022-08-19T06:50:00;23.60;79.90
66608;DHT22;53462;39.616;8.824;2022-08-19T06:52:32;23.90;80.60
66608;DHT22;53462;39.616;8.824;2022-08-19T06:54:59;24.20;78.90
66608;DHT22;53462;39.616;8.824;2022-08-19T06:57:26;24.30;77.30
66608;DHT22;53462;39.616;8.824;2022-08-19T06:59:52;24.60;78.00
66608;DHT22;53462;39.616;8.824;2022-08-19T07:02:19;24.90;77.40
66608;DHT22;53462;39.616;8.824;2022-08-19T07:04:45;25.20;75.80
66608;DHT22;53462;39.616;8.824;2022-08-19T07:07:13;25.50;74.50
66608;DHT22;53462;39.616;8.824;2022-08-19T07:09:42;25.60;72.80
66608;DHT22;53462;39.616;8.824;2022-08-19T07:12:10;25.80;71.20
66608;DHT22;53462;39.616;8.824;2022-08-19T07:14:38;26.00;70.20
66608;DHT22;53462;39.616;8.824;2022-08-19T07:17:09;26.10;69.20
66608;DHT22;53462;39.616;8.824;2022-08-19T07:19:37;26.30;68.10
66608;DHT22;53462;39.616;8.824;2022-08-19T07:22:05;26.50;66.60
66608;DHT22;53462;39.616;8.824;2022-08-19T07:24:32;26.70;65.50
66608;DHT22;53462;39.616;8.824;2022-08-19T07:27:02;26.90;62.90
66608;DHT22;53462;39.616;8.824;2022-08-19T07:29:31;27.10;63.50
66608;DHT22;53462;39.616;8.824;2022-08-19T07:32:00;27.40;62.60
66608;DHT22;53462;39.616;8.824;2022-08-19T07:34:28;27.60;60.90
66608;DHT22;53462;39.616;8.824;2022-08-19T07:36:55;27.70;64.40
66608;DHT22;53462;39.616;8.824;2022-08-19T07:39:27;26.30;72.30
66608;DHT22;53462;39.616;8.824;2022-08-19T07:41:54;24.40;76.70
66608;DHT22;53462;39.616;8.824;2022-08-19T07:44:21;23.60;82.70
66608;DHT22;53462;39.616;8.824;2022-08-19T07:46:51;23.80;82.90
66608;DHT22;53462;39.616;8.824;2022-08-19T07:49:18;23.70;82.60
66608;DHT22;53462;39.616;8.824;2022-08-19T07:51:57;24.00;82.80
66608;DHT22;53462;39.616;8.824;2022-08-19T07:54:27;24.70;81.70
66608;DHT22;53462;39.616;8.824;2022-08-19T07:56:53;25.20;79.60
66608;DHT22;53462;39.616;8.824;2022-08-19T07:59:22;25.60;80.40
66608;DHT22;53462;39.616;8.824;2022-08-19T08:01:49;25.80;78.40
66608;DHT22;53462;39.616;8.824;2022-08-19T08:04:17;25.90;77.60
66608;DHT22;53462;39.616;8.824;2022-08-19T08:07:04;26.00;77.80
66608;DHT22;53462;39.616;8.824;2022-08-19T08:09:48;25.40;78.80
66608;DHT22;53462;39.616;8.824;2022-08-19T08:12:29;24.80;79.90
66608;DHT22;53462;39.616;8.824;2022-08-19T08:14:58;24.70;81.50
66608;DHT22;53462;39.616;8.824;2022-08-19T08:17:28;24.70;80.20
66608;DHT22;53462;39.616;8.824;2022-08-19T08:19:55;25.50;80.30
66608;DHT22;53462;39.616;8.824;2022-08-19T08:22:23;26.10;79.00
66608;DHT22;53462;39.616;8.824;2022-08-19T08:25:11;25.90;77.70
66608;DHT22;53462;39.616;8.824;2022-08-19T08:27:39;25.60;77.00
66608;DHT22;53462;39.616;8.824;2022-08-19T08:30:16;25.60;78.50
66608;DHT22;53462;39.616;8.824;2022-08-19T08:32:42;25.70;78.20
66608;DHT22;53462;39.616;8.824;2022-08-19T08:35:11;26.10;77.50
66608;DHT22;53462;39.616;8.824;2022-08-19T08:37:39;26.30;75.40
66608;DHT22;53462;39.616;8.824;2022-08-19T08:40:18;26.30;75.10
66608;DHT22;53462;39.616;8.824;2022-08-19T08:42:53;25.80;75.30
66608;DHT22;53462;39.616;8.824;2022-08-19T08:45:22;25.80;73.10
66608;DHT22;53462;39.616;8.824;2022-08-19T08:47:50;26.10;73.90
66608;DHT22;53462;39.616;8.824;2022-08-19T08:50:27;26.50;71.10
66608;DHT22;53462;39.616;8.824;2022-08-19T08:52:57;26.50;70.10
66608;DHT22;53462;39.616;8.824;2022-08-19T08:55:27;26.90;69.00
66608;DHT22;53462;39.616;8.824;2022-08-19T08:58:09;27.20;66.20
66608;DHT22;53462;39.616;8.824;2022-08-19T09:00:43;27.50;65.70
66608;DHT22;53462;39.616;8.824;2022-08-19T09:03:20;27.60;66.00
66608;DHT22;53462;39.616;8.824;2022-08-19T09:11:56;27.80;63.20
66608;DHT22;53462;39.616;8.824;2022-08-19T09:17:11;28.20;63.20
66608;DHT22;53462;39.616;8.824;2022-08-19T09:19:50;28.20;62.20
66608;DHT22;53462;39.616;8.824;2022-08-19T09:22:16;27.60;62.70
66608;DHT22;53462;39.616;8.824;2022-08-19T09:24:42;27.50;61.00
66608;DHT22;53462;39.616;8.824;2022-08-19T09:27:08;28.30;60.30
66608;DHT22;53462;39.616;8.824;2022-08-19T09:29:34;27.50;60.90
66608;DHT22;53462;39.616;8.824;2022-08-19T09:32:00;26.80;62.30
66608;DHT22;53462;39.616;8.824;2022-08-19T09:34:26;27.20;63.40
66608;DHT22;53462;39.616;8.824;2022-08-19T09:36:52;27.40;61.90
66608;DHT22;53462;39.616;8.824;2022-08-19T09:39:18;27.70;60.50
66608;DHT22;53462;39.616;8.824;2022-08-19T09:41:44;27.40;61.00
66608;DHT22;53462;39.616;8.824;2022-08-19T09:44:10;27.90;59.40
66608;DHT22;53462;39.616;8.824;2022-08-19T09:46:38;28.50;57.00
66608;DHT22;53462;39.616;8.824;2022-08-19T09:49:04;28.90;56.80
66608;DHT22;53462;39.616;8.824;2022-08-19T09:51:32;29.10;54.40
66608;DHT22;53462;39.616;8.824;2022-08-19T09:54:03;29.40;55.10
66608;DHT22;53462;39.616;8.824;2022-08-19T09:56:31;28.90;56.20
66608;DHT22;53462;39.616;8.824;2022-08-19T09:58:58;29.40;55.60
66608;DHT22;53462;39.616;8.824;2022-08-19T10:01:27;29.90;53.50
66608;DHT22;53462;39.616;8.824;2022-08-19T10:03:56;30.20;53.80
66608;DHT22;53462;39.616;8.824;2022-08-19T10:06:24;30.00;50.70
66608;DHT22;53462;39.616;8.824;2022-08-19T10:08:51;30.10;52.20
66608;DHT22;53462;39.616;8.824;2022-08-19T10:11:19;30.40;52.50
66608;DHT22;53462;39.616;8.824;2022-08-19T10:13:46;29.60;52.20
66608;DHT22;53462;39.616;8.824;2022-08-19T10:16:15;29.90;53.20
66608;DHT22;53462;39.616;8.824;2022-08-19T10:18:42;29.60;54.10
66608;DHT22;53462;39.616;8.824;2022-08-19T10:21:13;29.70;53.60
66608;DHT22;53462;39.616;8.824;2022-08-19T10:23:42;30.40;52.70
66608;DHT22;53462;39.616;8.824;2022-08-19T10:26:13;30.00;53.40
66608;DHT22;53462;39.616;8.824;2022-08-19T10:28:39;29.90;52.50
66608;DHT22;53462;39.616;8.824;2022-08-19T10:31:11;29.70;52.40
66608;DHT22;53462;39.616;8.824;2022-08-19T10:33:39;28.80;60.50
66608;DHT22;53462;39.616;8.824;2022-08-19T10:36:12;27.50;66.60
66608;DHT22;53462;39.616;8.824;2022-08-19T10:38:41;26.30;68.50
66608;DHT22;53462;39.616;8.824;2022-08-19T10:41:09;26.30;70.60
66608;DHT22;53462;39.616;8.824;2022-08-19T10:43:35;26.80;70.50
66608;DHT22;53462;39.616;8.824;2022-08-19T10:46:06;27.20;70.80
66608;DHT22;53462;39.616;8.824;2022-08-19T10:48:32;26.90;68.00
66608;DHT22;53462;39.616;8.824;2022-08-19T10:50:59;27.90;67.60
66608;DHT22;53462;39.616;8.824;2022-08-19T10:53:43;28.90;61.00
66608;DHT22;53462;39.616;8.824;2022-08-19T10:56:09;29.40;58.70
66608;DHT22;53462;39.616;8.824;2022-08-19T10:58:53;29.30;56.80
66608;DHT22;53462;39.616;8.824;2022-08-19T11:01:20;28.90;57.30
66608;DHT22;53462;39.616;8.824;2022-08-19T11:03:45;29.70;53.90
66608;DHT22;53462;39.616;8.824;2022-08-19T11:06:11;29.20;54.90
66608;DHT22;53462;39.616;8.824;2022-08-19T11:08:38;28.70;56.00
66608;DHT22;53462;39.616;8.824;2022-08-19T11:11:05;29.40;53.00
66608;DHT22;53462;39.616;8.824;2022-08-19T11:13:33;29.80;50.60
66608;DHT22;53462;39.616;8.824;2022-08-19T11:16:04;30.20;51.00
66608;DHT22;53462;39.616;8.824;2022-08-19T11:18:30;30.40;50.20
66608;DHT22;53462;39.616;8.824;2022-08-19T11:21:06;30.60;51.30
66608;DHT22;53462;39.616;8.824;2022-08-19T11:23:32;30.40;52.50
66608;DHT22;53462;39.616;8.824;2022-08-19T11:25:58;29.50;54.00
66608;DHT22;53462;39.616;8.824;2022-08-19T11:28:25;29.30;55.30
66608;DHT22;53462;39.616;8.824;2022-08-19T11:30:51;30.20;50.90
66608;DHT22;53462;39.616;8.824;2022-08-19T11:33:17;31.00;48.10
66608;DHT22;53462;39.616;8.824;2022-08-19T11:35:42;31.00;47.60
66608;DHT22;53462;39.616;8.824;2022-08-19T11:38:08;31.10;48.20
66608;DHT22;53462;39.616;8.824;2022-08-19T11:40:34;31.50;48.30
66608;DHT22;53462;39.616;8.824;2022-08-19T11:43:00;31.10;47.10
66608;DHT22;53462;39.616;8.824;2022-08-19T11:45:27;31.30;47.70
66608;DHT22;53462;39.616;8.824;2022-08-19T11:47:54;31.60;47.50
66608;DHT22;53462;39.616;8.824;2022-08-19T11:50:20;31.50;47.40
66608;DHT22;53462;39.616;8.824;2022-08-19T11:52:46;31.60;47.80
66608;DHT22;53462;39.616;8.824;2022-08-19T11:55:13;31.00;48.40
66608;DHT22;53462;39.616;8.824;2022-08-19T11:57:40;30.60;48.70
66608;DHT22;53462;39.616;8.824;2022-08-19T12:00:10;31.20;46.80
66608;DHT22;53462;39.616;8.824;2022-08-19T12:02:38;31.10;45.80
66608;DHT22;53462;39.616;8.824;2022-08-19T12:05:04;31.20;46.20
66608;DHT22;53462;39.616;8.824;2022-08-19T12:07:31;30.70;47.30
66608;DHT22;53462;39.616;8.824;2022-08-19T12:09:59;31.10;47.80
66608;DHT22;53462;39.616;8.824;2022-08-19T12:12:26;31.20;47.40
66608;DHT22;53462;39.616;8.824;2022-08-19T12:14:53;31.80;46.40
66608;DHT22;53462;39.616;8.824;2022-08-19T12:17:27;32.00;45.20
66608;DHT22;53462;39.616;8.824;2022-08-19T12:19:54;32.20;44.00
66608;DHT22;53462;39.616;8.824;2022-08-19T12:22:20;32.10;44.50
66608;DHT22;53462;39.616;8.824;2022-08-19T12:24:47;32.00;44.10
66608;DHT22;53462;39.616;8.824;2022-08-19T12:27:16;32.10;43.90
66608;DHT22;53462;39.616;8.824;2022-08-19T12:29:42;31.30;45.10
66608;DHT22;53462;39.616;8.824;2022-08-19T12:32:08;31.60;46.20
66608;DHT22;53462;39.616;8.824;2022-08-19T12:34:34;31.80;46.40
66608;DHT22;53462;39.616;8.824;2022-08-19T12:37:04;32.20;44.40
66608;DHT22;53462;39.616;8.824;2022-08-19T12:39:37;31.60;44.30
66608;DHT22;53462;39.616;8.824;2022-08-19T12:42:04;31.50;43.20
66608;DHT22;53462;39.616;8.824;2022-08-19T12:44:31;31.90;42.40
66608;DHT22;53462;39.616;8.824;2022-08-19T12:46:58;31.40;44.00
66608;DHT22;53462;39.616;8.824;2022-08-19T12:49:27;31.00;45.70
66608;DHT22;53462;39.616;8.824;2022-08-19T12:51:52;30.20;47.20
66608;DHT22;53462;39.616;8.824;2022-08-19T12:54:18;29.40;49.80
66608;DHT22;53462;39.616;8.824;2022-08-19T12:56:45;29.70;51.00
66608;DHT22;53462;39.616;8.824;2022-08-19T12:59:11;30.50;49.20
66608;DHT22;53462;39.616;8.824;2022-08-19T13:01:37;31.10;45.40
66608;DHT22;53462;39.616;8.824;2022-08-19T13:04:03;31.10;45.80
66608;DHT22;53462;39.616;8.824;2022-08-19T13:06:29;31.00;47.40
66608;DHT22;53462;39.616;8.824;2022-08-19T13:08:55;30.50;48.90
66608;DHT22;53462;39.616;8.824;2022-08-19T13:11:22;31.10;48.30
66608;DHT22;53462;39.616;8.824;2022-08-19T13:13:52;30.60;48.80
66608;DHT22;53462;39.616;8.824;2022-08-19T13:16:19;30.00;49.20
66608;DHT22;53462;39.616;8.824;2022-08-19T13:18:46;29.70;48.40
66608;DHT22;53462;39.616;8.824;2022-08-19T13:21:19;29.50;49.80
66608;DHT22;53462;39.616;8.824;2022-08-19T13:23:47;29.60;50.60
66608;DHT22;53462;39.616;8.824;2022-08-19T13:26:13;29.20;52.90
66608;DHT22;53462;39.616;8.824;2022-08-19T13:28:40;29.70;51.80
66608;DHT22;53462;39.616;8.824;2022-08-19T13:31:27;30.00;48.90
66608;DHT22;53462;39.616;8.824;2022-08-19T13:34:12;30.10;48.80
66608;DHT22;53462;39.616;8.824;2022-08-19T13:36:38;30.20;48.40
66608;DHT22;53462;39.616;8.824;2022-08-19T13:39:05;30.20;48.20
66608;DHT22;53462;39.616;8.824;2022-08-19T13:41:33;30.60;48.90
66608;DHT22;53462;39.616;8.824;2022-08-19T13:44:00;30.30;50.00
66608;DHT22;53462;39.616;8.824;2022-08-19T13:46:27;30.30;48.60
66608;DHT22;53462;39.616;8.824;2022-08-19T13:48:55;30.30;48.80
66608;DHT22;53462;39.616;8.824;2022-08-19T13:51:22;30.20;48.30
66608;DHT22;53462;39.616;8.824;2022-08-19T13:53:51;30.10;48.10
66608;DHT22;53462;39.616;8.824;2022-08-19T13:56:18;30.30;47.70
66608;DHT22;53462;39.616;8.824;2022-08-19T13:58:45;30.40;48.50
66608;DHT22;53462;39.616;8.824;2022-08-19T14:01:11;30.40;48.00
66608;DHT22;53462;39.616;8.824;2022-08-19T14:03:38;30.40;48.70
66608;DHT22;53462;39.616;8.824;2022-08-19T14:06:04;30.30;48.00
66608;DHT22;53462;39.616;8.824;2022-08-19T14:08:30;30.30;48.70
66608;DHT22;53462;39.616;8.824;2022-08-19T14:10:58;30.40;47.50
66608;DHT22;53462;39.616;8.824;2022-08-19T14:13:24;30.10;48.30
66608;DHT22;53462;39.616;8.824;2022-08-19T14:15:53;29.50;49.00
66608;DHT22;53462;39.616;8.824;2022-08-19T14:18:19;29.10;50.10
66608;DHT22;53462;39.616;8.824;2022-08-19T14:20:45;29.10;50.90
66608;DHT22;53462;39.616;8.824;2022-08-19T14:23:11;29.20;51.60
66608;DHT22;53462;39.616;8.824;2022-08-19T14:25:39;29.00;51.00
66608;DHT22;53462;39.616;8.824;2022-08-19T14:28:05;28.60;50.00
66608;DHT22;53462;39.616;8.824;2022-08-19T14:30:34;28.30;51.60
66608;DHT22;53462;39.616;8.824;2022-08-19T14:33:01;28.50;51.60
66608;DHT22;53462;39.616;8.824;2022-08-19T14:35:30;28.80;51.80
66608;DHT22;53462;39.616;8.824;2022-08-19T14:37:58;28.90;52.10
66608;DHT22;53462;39.616;8.824;2022-08-19T14:40:27;28.90;52.10
66608;DHT22;53462;39.616;8.824;2022-08-19T14:42:57;29.00;51.50
66608;DHT22;53462;39.616;8.824;2022-08-19T14:45:29;29.00;51.60
66608;DHT22;53462;39.616;8.824;2022-08-19T14:47:55;28.70;51.80
66608;DHT22;53462;39.616;8.824;2022-08-19T14:50:21;28.50;52.30
66608;DHT22;53462;39.616;8.824;2022-08-19T14:52:48;28.20;53.70
66608;DHT22;53462;39.616;8.824;2022-08-19T14:55:16;28.10;54.10
66608;DHT22;53462;39.616;8.824;2022-08-19T14:57:43;28.20;53.50
66608;DHT22;53462;39.616;8.824;2022-08-19T15:00:10;28.70;53.50
66608;DHT22;53462;39.616;8.824;2022-08-19T15:02:40;28.30;54.00
66608;DHT22;53462;39.616;8.824;2022-08-19T15:05:06;28.20;55.20
66608;DHT22;53462;39.616;8.824;2022-08-19T15:07:32;27.70;61.00
66608;DHT22;53462;39.616;8.824;2022-08-19T15:09:59;27.20;65.90
66608;DHT22;53462;39.616;8.824;2022-08-19T15:12:25;26.80;68.50
66608;DHT22;53462;39.616;8.824;2022-08-19T15:14:51;26.50;70.50
66608;DHT22;53462;39.616;8.824;2022-08-19T15:17:17;26.30;69.70
66608;DHT22;53462;39.616;8.824;2022-08-19T15:19:44;26.20;69.90
66608;DHT22;53462;39.616;8.824;2022-08-19T15:22:11;26.40;66.00
66608;DHT22;53462;39.616;8.824;2022-08-19T15:24:38;26.60;63.50
66608;DHT22;53462;39.616;8.824;2022-08-19T15:27:04;27.00;62.50
66608;DHT22;53462;39.616;8.824;2022-08-19T15:29:31;27.20;61.70
66608;DHT22;53462;39.616;8.824;2022-08-19T15:31:58;27.30;59.10
66608;DHT22;53462;39.616;8.824;2022-08-19T15:34:24;27.30;59.30
66608;DHT22;53462;39.616;8.824;2022-08-19T15:36:51;27.10;59.30
66608;DHT22;53462;39.616;8.824;2022-08-19T15:39:18;26.90;60.70
66608;DHT22;53462;39.616;8.824;2022-08-19T15:41:45;26.80;59.70
66608;DHT22;53462;39.616;8.824;2022-08-19T15:44:17;26.70;59.70
66608;DHT22;53462;39.616;8.824;2022-08-19T15:46:44;26.70;59.70
66608;DHT22;53462;39.616;8.824;2022-08-19T15:49:14;26.50;60.60
66608;DHT22;53462;39.616;8.824;2022-08-19T15:51:42;26.50;60.10